createdAt,value
2022-10-08T00:00:12.370Z,52.24
2022-10-08T00:01:12.428Z,52.24
2022-10-08T00:02:12.409Z,52.24
2022-10-08T00:03:12.388Z,52.24
2022-10-08T00:04:12.448Z,52.24
2022-10-08T00:05:12.390Z,52.24
2022-10-08T00:06:12.397Z,52.24
2022-10-08T00:07:12.376Z,52.24
2022-10-08T00:08:12.389Z,52.24
2022-10-08T00:09:12.381Z,52.24
2022-10-08T00:10:12.392Z,52.24
2022-10-08T00:11:12.388Z,52.24
2022-10-08T00:12:12.393Z,52.24
2022-10-08T00:13:12.388Z,52.24
2022-10-08T00:14:12.386Z,52.24
2022-10-08T00:15:12.384Z,52.24
2022-10-08T00:16:12.605Z,52.24
2022-10-08T00:17:12.383Z,52.24
2022-10-08T00:18:12.392Z,52.24
2022-10-08T00:19:12.403Z,52.24
2022-10-08T00:20:12.391Z,52.24
2022-10-08T00:21:12.392Z,52.24
2022-10-08T00:22:12.395Z,52.24
2022-10-08T00:23:12.396Z,52.24
2022-10-08T00:24:12.406Z,52.24
2022-10-08T00:25:12.400Z,52.24
2022-10-08T00:26:12.401Z,52.24
2022-10-08T00:27:12.403Z,52.24
2022-10-08T00:28:12.426Z,52.24
2022-10-08T00:29:12.404Z,52.24
2022-10-08T00:30:12.409Z,52.24
2022-10-08T00:31:12.460Z,52.24
2022-10-08T00:32:12.430Z,52.24
2022-10-08T00:33:12.417Z,52.24
2022-10-08T00:34:12.419Z,52.24
2022-10-08T00:35:12.428Z,52.24
2022-10-08T00:36:12.419Z,52.24
2022-10-08T00:37:12.422Z,52.24
2022-10-08T00:38:12.410Z,52.24
2022-10-08T00:39:12.420Z,52.24
2022-10-08T00:40:12.416Z,52.24
2022-10-08T00:41:12.414Z,52.24
2022-10-08T00:42:12.425Z,52.24
2022-10-08T00:43:12.415Z,52.24
2022-10-08T00:44:12.412Z,52.24
2022-10-08T00:45:12.416Z,52.24
2022-10-08T00:46:12.483Z,52.24
2022-10-08T00:47:12.414Z,52.24
2022-10-08T00:48:12.410Z,52.24
2022-10-08T00:49:12.426Z,52.24
2022-10-08T00:50:12.467Z,52.24
2022-10-08T00:51:12.451Z,52.24
2022-10-08T00:52:12.428Z,52.24
2022-10-08T00:53:12.426Z,52.24
2022-10-08T00:54:12.429Z,52.24
2022-10-08T00:55:12.425Z,52.24
2022-10-08T00:56:12.436Z,52.24
2022-10-08T00:57:12.436Z,52.24
2022-10-08T00:58:12.431Z,52.24
2022-10-08T00:59:12.444Z,52.24
2022-10-08T01:00:12.439Z,52.24
2022-10-08T01:01:12.478Z,52.24
2022-10-08T01:02:12.485Z,52.24
2022-10-08T01:03:12.455Z,52.24
2022-10-08T01:04:12.454Z,52.24
2022-10-08T01:05:12.442Z,52.24
2022-10-08T01:06:12.447Z,52.24
2022-10-08T01:07:12.464Z,52.24
2022-10-08T01:08:12.452Z,52.24
2022-10-08T01:09:16.558Z,52.24
2022-10-08T01:10:12.449Z,52.24
2022-10-08T01:11:12.455Z,52.24
2022-10-08T01:12:12.455Z,52.24
2022-10-08T01:13:12.461Z,52.24
2022-10-08T01:14:12.461Z,52.24
2022-10-08T01:15:12.457Z,52.24
2022-10-08T01:16:12.514Z,52.24
2022-10-08T01:17:12.467Z,52.24
2022-10-08T01:18:12.470Z,52.24
2022-10-08T01:19:12.460Z,52.24
2022-10-08T01:20:12.464Z,52.24
2022-10-08T01:21:12.461Z,52.24
2022-10-08T01:22:12.465Z,52.24
2022-10-08T01:23:12.498Z,52.24
2022-10-08T01:24:12.471Z,52.24
2022-10-08T01:25:12.478Z,52.24
2022-10-08T01:26:12.469Z,52.24
2022-10-08T01:27:12.490Z,52.24
2022-10-08T01:28:12.563Z,52.24
2022-10-08T01:29:12.495Z,52.24
2022-10-08T01:30:12.498Z,52.24
2022-10-08T01:31:12.528Z,52.24
2022-10-08T01:32:12.477Z,52.24
2022-10-08T01:33:12.512Z,52.24
2022-10-08T01:34:12.484Z,52.24
2022-10-08T01:35:12.478Z,52.24
2022-10-08T01:36:12.481Z,52.24
2022-10-08T01:37:12.481Z,52.24
2022-10-08T01:38:12.484Z,52.24
2022-10-08T01:39:12.512Z,52.24
2022-10-08T01:40:12.493Z,52.24
2022-10-08T01:41:12.500Z,52.24
2022-10-08T01:42:12.489Z,52.24
2022-10-08T01:43:12.498Z,52.24
2022-10-08T01:44:12.504Z,52.24
2022-10-08T01:45:12.489Z,52.24
2022-10-08T01:46:12.523Z,52.24
2022-10-08T01:47:12.500Z,52.24
2022-10-08T01:48:12.505Z,52.24
2022-10-08T01:49:12.507Z,52.24
2022-10-08T01:50:12.509Z,52.24
2022-10-08T01:51:12.500Z,52.24
2022-10-08T01:52:12.515Z,52.24
2022-10-08T01:53:12.510Z,52.24
2022-10-08T01:54:12.510Z,52.24
2022-10-08T01:55:12.535Z,52.24
2022-10-08T01:56:12.507Z,52.24
2022-10-08T01:57:12.532Z,52.24
2022-10-08T01:58:12.514Z,52.24
2022-10-08T01:59:12.525Z,52.24
2022-10-08T02:00:12.516Z,52.24
2022-10-08T02:01:12.612Z,52.24
2022-10-08T02:02:12.644Z,52.24
2022-10-08T02:03:12.528Z,52.24
2022-10-08T02:04:12.526Z,52.24
2022-10-08T02:05:12.529Z,52.24
2022-10-08T02:06:12.529Z,52.24
2022-10-08T02:07:12.529Z,52.24
2022-10-08T02:08:12.529Z,52.24
2022-10-08T02:09:12.531Z,52.24
2022-10-08T02:10:12.535Z,52.24
2022-10-08T02:11:12.560Z,52.24
2022-10-08T02:12:12.533Z,52.24
2022-10-08T02:13:12.533Z,52.24
2022-10-08T02:14:12.531Z,52.24
2022-10-08T02:15:12.536Z,52.24
2022-10-08T02:16:12.609Z,52.24
2022-10-08T02:17:12.537Z,52.24
2022-10-08T02:18:12.542Z,52.24
2022-10-08T02:19:12.544Z,52.24
2022-10-08T02:20:12.546Z,52.24
2022-10-08T02:21:12.541Z,52.24
2022-10-08T02:22:12.542Z,52.24
2022-10-08T02:23:12.547Z,52.24
2022-10-08T02:24:12.545Z,52.24
2022-10-08T02:25:12.535Z,52.24
2022-10-08T02:26:12.542Z,52.24
2022-10-08T02:27:12.563Z,52.24
2022-10-08T02:28:12.566Z,52.24
2022-10-08T02:29:12.551Z,52.24
2022-10-08T02:30:12.543Z,52.24
2022-10-08T02:31:12.545Z,52.24
2022-10-08T02:32:12.599Z,52.24
2022-10-08T02:33:12.546Z,52.24
2022-10-08T02:34:12.551Z,52.24
2022-10-08T02:35:12.563Z,52.24
2022-10-08T02:36:12.556Z,52.24
2022-10-08T02:37:12.558Z,52.24
2022-10-08T02:38:12.563Z,52.24
2022-10-08T02:39:12.565Z,52.24
2022-10-08T02:40:12.555Z,52.24
2022-10-08T02:41:12.562Z,52.24
2022-10-08T02:42:12.564Z,52.24
2022-10-08T02:43:12.585Z,52.24
2022-10-08T02:44:12.556Z,52.24
2022-10-08T02:45:12.558Z,52.24
2022-10-08T02:46:12.598Z,52.24
2022-10-08T02:47:12.561Z,52.24
2022-10-08T02:48:12.559Z,52.24
2022-10-08T02:49:12.566Z,52.24
2022-10-08T02:50:12.570Z,52.24
2022-10-08T02:51:12.565Z,52.24
2022-10-08T02:52:12.559Z,52.24
2022-10-08T02:53:12.568Z,52.24
2022-10-08T02:54:12.575Z,52.24
2022-10-08T02:55:12.568Z,52.24
2022-10-08T02:56:12.571Z,52.24
2022-10-08T02:57:12.567Z,52.24
2022-10-08T02:58:12.568Z,52.24
2022-10-08T02:59:12.611Z,52.24
2022-10-08T03:00:12.577Z,52.24
2022-10-08T03:01:12.622Z,52.24
2022-10-08T03:02:12.620Z,52.24
2022-10-08T03:03:12.579Z,52.24
2022-10-08T03:04:12.570Z,52.24
2022-10-08T03:05:12.575Z,52.24
2022-10-08T03:06:12.581Z,52.24
2022-10-08T03:07:12.581Z,52.24
2022-10-08T03:08:12.582Z,52.24
2022-10-08T03:09:12.576Z,52.24
2022-10-08T03:10:12.579Z,52.24
2022-10-08T03:11:12.580Z,52.24
2022-10-08T03:12:12.572Z,52.24
2022-10-08T03:13:12.588Z,52.24
2022-10-08T03:14:12.587Z,52.24
2022-10-08T03:15:12.604Z,52.24
2022-10-08T03:16:12.602Z,52.24
2022-10-08T03:17:12.578Z,52.24
2022-10-08T03:18:12.581Z,52.24
2022-10-08T03:19:12.591Z,52.24
2022-10-08T03:20:12.582Z,52.24
2022-10-08T03:21:12.583Z,52.24
2022-10-08T03:22:12.584Z,52.24
2022-10-08T03:23:12.585Z,52.24
2022-10-08T03:24:12.593Z,52.24
2022-10-08T03:25:12.586Z,52.24
2022-10-08T03:26:12.613Z,52.24
2022-10-08T03:27:12.583Z,52.24
2022-10-08T03:28:12.620Z,52.24
2022-10-08T03:29:12.586Z,52.24
2022-10-08T03:30:12.593Z,52.24
2022-10-08T03:31:12.684Z,52.24
2022-10-08T03:32:12.594Z,52.24
2022-10-08T03:33:12.585Z,52.24
2022-10-08T03:34:12.584Z,52.24
2022-10-08T03:35:12.590Z,52.24
2022-10-08T03:36:12.595Z,52.24
2022-10-08T03:37:12.597Z,52.24
2022-10-08T03:38:12.594Z,52.24
2022-10-08T03:39:12.595Z,52.24
2022-10-08T03:40:12.595Z,52.24
2022-10-08T03:41:12.594Z,52.24
2022-10-08T03:42:12.590Z,52.24
2022-10-08T03:43:12.594Z,52.24
2022-10-08T03:44:12.595Z,52.24
2022-10-08T03:45:12.589Z,52.24
2022-10-08T03:46:12.646Z,52.24
2022-10-08T03:47:12.607Z,52.24
2022-10-08T03:48:12.596Z,52.24
2022-10-08T03:49:12.593Z,52.24
2022-10-08T03:50:12.588Z,52.24
2022-10-08T03:51:12.588Z,52.24
2022-10-08T03:52:12.594Z,52.24
2022-10-08T03:53:12.600Z,52.24
2022-10-08T03:54:12.597Z,52.24
2022-10-08T03:55:12.601Z,52.24
2022-10-08T03:56:12.589Z,52.24
2022-10-08T03:57:12.620Z,52.24
2022-10-08T03:58:12.599Z,52.24
2022-10-08T03:59:12.603Z,52.24
2022-10-08T04:00:12.600Z,52.24
2022-10-08T04:01:12.659Z,52.24
2022-10-08T04:02:12.640Z,52.24
2022-10-08T04:03:12.629Z,52.24
2022-10-08T04:04:12.618Z,52.24
2022-10-08T04:05:12.619Z,52.24
2022-10-08T04:06:12.603Z,52.24
2022-10-08T04:07:12.620Z,52.24
2022-10-08T04:08:12.621Z,52.24
2022-10-08T04:09:12.624Z,52.24
2022-10-08T04:10:12.619Z,52.24
2022-10-08T04:11:12.614Z,52.24
2022-10-08T04:12:12.628Z,52.24
2022-10-08T04:13:12.624Z,52.24
2022-10-08T04:14:12.619Z,52.24
2022-10-08T04:15:12.627Z,52.24
2022-10-08T04:16:12.682Z,52.24
2022-10-08T04:17:12.629Z,52.24
2022-10-08T04:18:12.630Z,52.24
2022-10-08T04:19:12.653Z,52.24
2022-10-08T04:20:12.618Z,52.24
2022-10-08T04:21:12.622Z,52.24
2022-10-08T04:22:12.625Z,52.24
2022-10-08T04:23:12.625Z,52.24
2022-10-08T04:24:12.625Z,52.24
2022-10-08T04:25:12.633Z,52.24
2022-10-08T04:26:12.639Z,52.24
2022-10-08T04:27:12.643Z,52.24
2022-10-08T04:28:12.678Z,52.24
2022-10-08T04:29:12.667Z,52.24
2022-10-08T04:30:12.626Z,52.24
2022-10-08T04:31:12.746Z,52.24
2022-10-08T04:32:12.625Z,52.24
2022-10-08T04:33:12.630Z,52.24
2022-10-08T04:34:12.632Z,52.24
2022-10-08T04:35:12.653Z,52.24
2022-10-08T04:36:12.631Z,52.24
2022-10-08T04:37:12.659Z,52.24
2022-10-08T04:38:12.631Z,52.24
2022-10-08T04:39:12.644Z,52.24
2022-10-08T04:40:12.636Z,52.24
2022-10-08T04:41:12.640Z,52.24
2022-10-08T04:42:12.642Z,52.24
2022-10-08T04:43:12.635Z,52.24
2022-10-08T04:44:12.643Z,52.24
2022-10-08T04:45:12.634Z,52.24
2022-10-08T04:46:12.734Z,52.24
2022-10-08T04:47:12.641Z,52.24
2022-10-08T04:48:12.649Z,52.24
2022-10-08T04:49:12.646Z,52.24
2022-10-08T04:50:12.652Z,52.24
2022-10-08T04:51:12.676Z,52.24
2022-10-08T04:52:12.654Z,52.24
2022-10-08T04:53:12.648Z,52.24
2022-10-08T04:54:12.646Z,52.24
2022-10-08T04:55:12.647Z,52.24
2022-10-08T04:56:12.649Z,52.24
2022-10-08T04:57:12.648Z,52.24
2022-10-08T04:58:12.643Z,52.24
2022-10-08T04:59:12.656Z,52.24
2022-10-08T05:00:18.036Z,52.24
2022-10-08T05:01:12.682Z,52.24
2022-10-08T05:02:12.662Z,52.24
2022-10-08T05:03:12.677Z,52.24
2022-10-08T05:04:12.653Z,52.24
2022-10-08T05:05:12.646Z,52.24
2022-10-08T05:06:12.650Z,52.24
2022-10-08T05:07:12.675Z,52.24
2022-10-08T05:08:12.660Z,52.24
2022-10-08T05:09:12.648Z,52.24
2022-10-08T05:10:12.650Z,52.24
2022-10-08T05:11:12.655Z,52.24
2022-10-08T05:12:12.661Z,52.24
2022-10-08T05:13:12.665Z,52.24
2022-10-08T05:14:12.655Z,52.24
2022-10-08T05:15:12.662Z,52.24
2022-10-08T05:16:12.806Z,52.24
2022-10-08T05:17:12.662Z,52.24
2022-10-08T05:18:12.661Z,52.24
2022-10-08T05:19:12.661Z,52.24
2022-10-08T05:20:12.655Z,52.24
2022-10-08T05:21:12.667Z,52.24
2022-10-08T05:22:12.658Z,52.24
2022-10-08T05:23:12.690Z,52.24
2022-10-08T05:24:12.665Z,52.24
2022-10-08T05:25:12.670Z,52.24
2022-10-08T05:26:12.656Z,52.24
2022-10-08T05:27:12.666Z,52.24
2022-10-08T05:28:12.702Z,52.24
2022-10-08T05:29:12.667Z,52.24
2022-10-08T05:30:12.659Z,52.24
2022-10-08T05:31:12.743Z,52.24
2022-10-08T05:32:12.670Z,52.24
2022-10-08T05:33:12.667Z,52.24
2022-10-08T05:34:12.670Z,52.24
2022-10-08T05:35:12.670Z,52.24
2022-10-08T05:36:12.663Z,52.24
2022-10-08T05:37:12.682Z,52.24
2022-10-08T05:38:12.667Z,52.24
2022-10-08T05:39:12.697Z,52.24
2022-10-08T05:40:12.675Z,52.24
2022-10-08T05:41:12.683Z,52.24
2022-10-08T05:42:12.668Z,52.24
2022-10-08T05:43:12.672Z,52.24
2022-10-08T05:44:12.678Z,52.24
2022-10-08T05:45:12.698Z,52.24
2022-10-08T05:46:12.751Z,52.24
2022-10-08T05:47:12.679Z,52.24
2022-10-08T05:48:12.680Z,52.24
2022-10-08T05:49:12.679Z,52.24
2022-10-08T05:50:12.675Z,52.24
2022-10-08T05:51:12.684Z,52.24
2022-10-08T05:52:12.668Z,52.24
2022-10-08T05:53:12.676Z,52.24
2022-10-08T05:54:12.678Z,52.24
2022-10-08T05:55:12.701Z,52.24
2022-10-08T05:56:12.677Z,52.24
2022-10-08T05:57:12.686Z,52.24
2022-10-08T05:58:12.680Z,52.24
2022-10-08T05:59:12.691Z,52.24
2022-10-08T06:00:12.690Z,52.24
2022-10-08T06:01:12.686Z,52.24
2022-10-08T06:02:12.684Z,52.24
2022-10-08T06:03:12.701Z,52.24
2022-10-08T06:04:12.680Z,52.24
2022-10-08T06:05:12.688Z,52.24
2022-10-08T06:06:12.693Z,52.24
2022-10-08T06:07:12.683Z,52.24
2022-10-08T06:08:12.680Z,52.24
2022-10-08T06:09:12.684Z,52.24
2022-10-08T06:10:12.683Z,52.24
2022-10-08T06:11:12.765Z,52.24
2022-10-08T06:12:12.677Z,52.24
2022-10-08T06:13:12.688Z,52.24
2022-10-08T06:14:12.683Z,52.24
2022-10-08T06:15:12.687Z,52.24
2022-10-08T06:16:12.755Z,52.24
2022-10-08T06:17:12.688Z,52.24
2022-10-08T06:18:12.685Z,52.24
2022-10-08T06:19:12.692Z,52.24
2022-10-08T06:20:12.692Z,52.24
2022-10-08T06:21:12.688Z,52.24
2022-10-08T06:22:12.684Z,52.24
2022-10-08T06:23:12.696Z,52.24
2022-10-08T06:24:12.692Z,52.24
2022-10-08T06:25:12.690Z,52.24
2022-10-08T06:26:12.697Z,52.24
2022-10-08T06:27:12.706Z,52.24
2022-10-08T06:28:12.731Z,52.24
2022-10-08T06:29:12.688Z,52.24
2022-10-08T06:30:12.686Z,52.24
2022-10-08T06:31:12.753Z,52.24
2022-10-08T06:32:12.692Z,52.24
2022-10-08T06:33:12.729Z,52.24
2022-10-08T06:34:12.688Z,52.24
2022-10-08T06:35:12.692Z,52.24
2022-10-08T06:36:12.690Z,52.24
2022-10-08T06:37:12.699Z,52.24
2022-10-08T06:38:12.698Z,52.24
2022-10-08T06:39:12.696Z,52.24
2022-10-08T06:40:12.685Z,52.24
2022-10-08T06:41:12.697Z,52.24
2022-10-08T06:42:12.691Z,52.24
2022-10-08T06:43:12.709Z,52.24
2022-10-08T06:44:12.695Z,52.24
2022-10-08T06:45:12.685Z,52.24
2022-10-08T06:46:12.853Z,52.24
2022-10-08T06:47:12.692Z,52.24
2022-10-08T06:48:12.689Z,52.24
2022-10-08T06:49:12.700Z,52.24
2022-10-08T06:50:12.694Z,52.24
2022-10-08T06:51:12.697Z,52.24
2022-10-08T06:52:12.692Z,52.24
2022-10-08T06:53:12.688Z,52.24
2022-10-08T06:54:12.693Z,52.24
2022-10-08T06:55:12.700Z,52.24
2022-10-08T06:56:12.692Z,52.24
2022-10-08T06:57:12.695Z,52.24
2022-10-08T06:58:12.697Z,52.24
2022-10-08T06:59:12.707Z,52.24
2022-10-08T07:00:12.694Z,52.24
2022-10-08T07:01:12.814Z,52.24
2022-10-08T07:02:12.735Z,52.24
2022-10-08T07:03:12.697Z,52.24
2022-10-08T07:04:12.704Z,52.24
2022-10-08T07:05:12.702Z,52.24
2022-10-08T07:06:12.695Z,52.24
2022-10-08T07:07:12.695Z,52.24
2022-10-08T07:08:12.700Z,52.24
2022-10-08T07:09:12.697Z,52.24
2022-10-08T07:10:14.642Z,52.24
2022-10-08T07:11:12.698Z,52.24
2022-10-08T07:12:12.705Z,52.24
2022-10-08T07:13:12.700Z,52.24
2022-10-08T07:14:12.702Z,52.24
2022-10-08T07:15:12.734Z,52.24
2022-10-08T07:16:15.711Z,52.24
2022-10-08T07:17:12.707Z,52.24
2022-10-08T07:18:12.704Z,52.24
2022-10-08T07:19:12.705Z,52.24
2022-10-08T07:20:12.712Z,52.24
2022-10-08T07:21:12.715Z,52.24
2022-10-08T07:22:12.709Z,52.24
2022-10-08T07:23:12.706Z,52.24
2022-10-08T07:24:12.712Z,52.24
2022-10-08T07:25:12.699Z,52.24
2022-10-08T07:26:12.707Z,52.24
2022-10-08T07:27:12.711Z,52.24
2022-10-08T07:28:12.747Z,52.24
2022-10-08T07:29:12.708Z,52.24
2022-10-08T07:30:12.712Z,52.24
2022-10-08T07:31:12.791Z,52.24
2022-10-08T07:32:12.709Z,52.24
2022-10-08T07:33:12.704Z,52.24
2022-10-08T07:34:12.706Z,52.24
2022-10-08T07:35:12.712Z,52.24
2022-10-08T07:36:12.719Z,52.24
2022-10-08T07:37:12.714Z,52.24
2022-10-08T07:38:12.703Z,52.24
2022-10-08T07:39:12.724Z,52.24
2022-10-08T07:40:12.707Z,52.24
2022-10-08T07:41:12.712Z,52.24
2022-10-08T07:42:12.711Z,52.24
2022-10-08T07:43:14.636Z,52.24
2022-10-08T07:44:12.715Z,52.24
2022-10-08T07:45:12.713Z,52.24
2022-10-08T07:46:12.737Z,52.24
2022-10-08T07:47:12.734Z,52.24
2022-10-08T07:48:12.708Z,52.24
2022-10-08T07:49:12.721Z,52.24
2022-10-08T07:50:12.714Z,52.24
2022-10-08T07:51:12.721Z,275.29
2022-10-08T07:52:12.722Z,272.47
2022-10-08T07:53:12.725Z,240
2022-10-08T07:54:12.722Z,282.35
2022-10-08T07:55:12.734Z,228.71
2022-10-08T07:56:12.733Z,203.29
2022-10-08T07:57:12.732Z,203.29
2022-10-08T07:58:12.733Z,203.29
2022-10-08T07:59:12.733Z,203.29
2022-10-08T08:00:12.741Z,203.29
2022-10-08T08:01:12.786Z,203.29
2022-10-08T08:02:12.803Z,203.29
2022-10-08T08:03:12.757Z,203.29
2022-10-08T08:04:12.740Z,203.29
2022-10-08T08:05:12.734Z,203.29
2022-10-08T08:06:12.734Z,203.29
2022-10-08T08:07:12.746Z,203.29
2022-10-08T08:08:12.738Z,203.29
2022-10-08T08:09:12.750Z,203.29
2022-10-08T08:10:12.746Z,203.29
2022-10-08T08:11:12.745Z,203.29
2022-10-08T08:12:12.752Z,203.29
2022-10-08T08:13:12.758Z,203.29
2022-10-08T08:14:12.753Z,203.29
2022-10-08T08:15:12.759Z,203.29
2022-10-08T08:16:12.804Z,203.29
2022-10-08T08:17:12.763Z,203.29
2022-10-08T08:18:12.761Z,203.29
2022-10-08T08:19:12.786Z,203.29
2022-10-08T08:20:12.759Z,203.29
2022-10-08T08:21:12.762Z,203.29
2022-10-08T08:22:12.764Z,203.29
2022-10-08T08:23:12.762Z,203.29
2022-10-08T08:24:12.764Z,203.29
2022-10-08T08:25:12.766Z,203.29
2022-10-08T08:26:12.790Z,203.29
2022-10-08T08:27:12.764Z,203.29
2022-10-08T08:28:12.809Z,203.29
2022-10-08T08:29:12.773Z,203.29
2022-10-08T08:30:12.769Z,203.29
2022-10-08T08:31:12.772Z,203.29
2022-10-08T08:32:12.828Z,203.29
2022-10-08T08:33:12.779Z,203.29
2022-10-08T08:34:12.783Z,203.29
2022-10-08T08:35:12.805Z,203.29
2022-10-08T08:36:12.776Z,203.29
2022-10-08T08:37:12.812Z,203.29
2022-10-08T08:38:12.779Z,203.29
2022-10-08T08:39:12.782Z,203.29
2022-10-08T08:40:12.785Z,203.29
2022-10-08T08:41:14.855Z,203.29
2022-10-08T08:42:12.776Z,203.29
2022-10-08T08:43:12.788Z,203.29
2022-10-08T08:44:12.786Z,203.29
2022-10-08T08:45:28.322Z,203.29
2022-10-08T08:46:12.814Z,203.29
2022-10-08T08:47:12.785Z,203.29
2022-10-08T08:48:12.781Z,203.29
2022-10-08T08:49:12.784Z,203.29
2022-10-08T08:50:12.796Z,203.29
2022-10-08T08:51:12.805Z,203.29
2022-10-08T08:52:12.797Z,203.29
2022-10-08T08:53:12.798Z,203.29
2022-10-08T08:54:12.795Z,203.29
2022-10-08T08:55:12.793Z,203.29
2022-10-08T08:56:12.797Z,203.29
2022-10-08T08:57:12.799Z,203.29
2022-10-08T08:58:12.801Z,203.29
2022-10-08T08:59:12.805Z,203.29
2022-10-08T09:00:12.810Z,203.29
2022-10-08T09:01:12.853Z,203.29
2022-10-08T09:02:12.806Z,203.29
2022-10-08T09:03:12.806Z,203.29
2022-10-08T09:04:12.807Z,203.29
2022-10-08T09:05:12.866Z,203.29
2022-10-08T09:06:12.812Z,203.29
2022-10-08T09:07:12.837Z,232.94
2022-10-08T09:08:12.823Z,286.59
2022-10-08T09:09:12.817Z,272.47
2022-10-08T09:10:12.815Z,272.47
2022-10-08T09:11:12.824Z,272.47
2022-10-08T09:12:12.834Z,272.47
2022-10-08T09:13:12.824Z,272.47
2022-10-08T09:14:12.825Z,272.47
2022-10-08T09:15:12.821Z,272.47
2022-10-08T09:16:12.858Z,272.47
2022-10-08T09:17:12.827Z,272.47
2022-10-08T09:18:12.828Z,272.47
2022-10-08T09:19:12.833Z,286.59
2022-10-08T09:20:12.834Z,280.94
2022-10-08T09:21:12.832Z,262.59
2022-10-08T09:22:12.826Z,299.29
2022-10-08T09:23:12.859Z,324.71
2022-10-08T09:24:12.843Z,203.29
2022-10-08T09:25:12.832Z,208.94
2022-10-08T09:26:12.829Z,208.94
2022-10-08T09:27:12.831Z,213.18
2022-10-08T09:28:12.872Z,169.41
2022-10-08T09:29:12.836Z,169.41
2022-10-08T09:30:12.830Z,169.41
2022-10-08T09:31:12.912Z,169.41
2022-10-08T09:32:12.835Z,169.41
2022-10-08T09:33:12.839Z,217.41
2022-10-08T09:34:12.843Z,149.65
2022-10-08T09:35:12.846Z,111.53
2022-10-08T09:36:12.845Z,166.59
2022-10-08T09:37:12.849Z,216
2022-10-08T09:38:12.840Z,179.29
2022-10-08T09:39:12.902Z,180.71
2022-10-08T09:40:12.844Z,173.65
2022-10-08T09:41:12.848Z,135.53
2022-10-08T09:42:12.846Z,135.53
2022-10-08T09:43:12.866Z,199.06
2022-10-08T09:44:12.849Z,196.24
2022-10-08T09:45:12.850Z,169.41
2022-10-08T09:46:12.893Z,14.12
2022-10-08T09:47:12.850Z,238.59
2022-10-08T09:48:12.861Z,207.53
2022-10-08T09:49:12.862Z,182.12
2022-10-08T09:50:12.857Z,189.18
2022-10-08T09:51:12.874Z,180.71
2022-10-08T09:52:16.847Z,194.82
2022-10-08T09:53:12.862Z,186.35
2022-10-08T09:54:12.870Z,177.88
2022-10-08T09:55:12.895Z,182.12
2022-10-08T09:56:12.876Z,225.88
2022-10-08T09:57:12.872Z,177.88
2022-10-08T09:58:12.874Z,187.76
2022-10-08T09:59:12.874Z,166.59
2022-10-08T10:00:12.880Z,166.59
2022-10-08T10:01:12.937Z,224.47
2022-10-08T10:02:12.877Z,224.47
2022-10-08T10:03:12.881Z,238.59
2022-10-08T10:04:12.957Z,228.71
2022-10-08T10:05:12.884Z,228.71
2022-10-08T10:06:12.896Z,228.71
2022-10-08T10:07:12.883Z,199.06
2022-10-08T10:08:12.882Z,197.65
2022-10-08T10:09:12.877Z,115.76
2022-10-08T10:10:12.892Z,74.82
2022-10-08T10:11:12.925Z,278.12
2022-10-08T10:12:12.885Z,282.35
2022-10-08T10:13:12.895Z,265.41
2022-10-08T10:14:12.894Z,249.88
2022-10-08T10:15:12.902Z,201.88
2022-10-08T10:16:12.902Z,156.71
2022-10-08T10:17:12.899Z,183.53
2022-10-08T10:18:12.907Z,175.06
2022-10-08T10:19:12.901Z,175.06
2022-10-08T10:20:12.901Z,230.12
2022-10-08T10:21:12.907Z,163.76
2022-10-08T10:22:12.908Z,175.06
2022-10-08T10:23:12.899Z,183.53
2022-10-08T10:24:12.902Z,152.47
2022-10-08T10:25:12.910Z,159.53
2022-10-08T10:26:12.916Z,79.06
2022-10-08T10:27:12.932Z,169.41
2022-10-08T10:28:12.975Z,194.82
2022-10-08T10:29:12.918Z,184.94
2022-10-08T10:30:12.902Z,156.71
2022-10-08T10:31:12.983Z,156.71
2022-10-08T10:32:14.664Z,237.18
2022-10-08T10:33:12.915Z,180.71
2022-10-08T10:34:12.909Z,160.94
2022-10-08T10:35:12.911Z,216
2022-10-08T10:36:12.916Z,245.65
2022-10-08T10:37:12.904Z,207.53
2022-10-08T10:38:12.916Z,183.53
2022-10-08T10:39:12.913Z,280.94
2022-10-08T10:40:12.915Z,249.88
2022-10-08T10:41:12.917Z,190.59
2022-10-08T10:42:12.914Z,189.18
2022-10-08T10:43:12.948Z,186.35
2022-10-08T10:44:12.919Z,186.35
2022-10-08T10:45:12.934Z,184.94
2022-10-08T10:46:12.986Z,183.53
2022-10-08T10:47:12.917Z,227.29
2022-10-08T10:48:12.931Z,230.12
2022-10-08T10:49:12.922Z,208.94
2022-10-08T10:50:12.937Z,234.35
2022-10-08T10:51:12.925Z,292.24
2022-10-08T10:52:12.927Z,275.29
2022-10-08T10:53:12.938Z,262.59
2022-10-08T10:54:12.927Z,255.53
2022-10-08T10:55:12.924Z,203.29
2022-10-08T10:56:12.925Z,187.76
2022-10-08T10:57:12.937Z,179.29
2022-10-08T10:58:12.929Z,136.94
2022-10-08T10:59:12.950Z,223.06
2022-10-08T11:00:12.930Z,223.06
2022-10-08T11:01:12.997Z,258.35
2022-10-08T11:02:12.950Z,223.06
2022-10-08T11:03:13.042Z,223.06
2022-10-08T11:04:12.939Z,280.94
2022-10-08T11:05:12.930Z,272.47
2022-10-08T11:06:12.933Z,262.59
2022-10-08T11:07:12.939Z,244.24
2022-10-08T11:08:12.944Z,299.29
2022-10-08T11:09:12.936Z,256.94
2022-10-08T11:10:12.932Z,232.94
2022-10-08T11:11:12.942Z,232.94
2022-10-08T11:12:12.951Z,283.76
2022-10-08T11:13:12.938Z,283.76
2022-10-08T11:14:12.935Z,283.76
2022-10-08T11:15:12.963Z,283.76
2022-10-08T11:16:12.954Z,283.76
2022-10-08T11:17:12.948Z,283.76
2022-10-08T11:18:12.937Z,283.76
2022-10-08T11:19:12.948Z,283.76
2022-10-08T11:20:12.943Z,283.76
2022-10-08T11:21:12.945Z,283.76
2022-10-08T11:22:12.947Z,283.76
2022-10-08T11:23:12.944Z,283.76
2022-10-08T11:24:12.971Z,283.76
2022-10-08T11:25:12.950Z,283.76
2022-10-08T11:26:22.202Z,283.76
2022-10-08T11:27:12.947Z,283.76
2022-10-08T11:28:12.996Z,283.76
2022-10-08T11:29:12.944Z,283.76
2022-10-08T11:30:12.950Z,283.76
2022-10-08T11:31:13.018Z,283.76
2022-10-08T11:32:12.944Z,283.76
2022-10-08T11:33:12.952Z,283.76
2022-10-08T11:34:12.947Z,283.76
2022-10-08T11:35:12.952Z,283.76
2022-10-08T11:36:12.944Z,283.76
2022-10-08T11:37:12.947Z,283.76
2022-10-08T11:38:12.953Z,283.76
2022-10-08T11:39:12.944Z,283.76
2022-10-08T11:40:12.957Z,283.76
2022-10-08T11:41:12.960Z,283.76
2022-10-08T11:42:12.953Z,283.76
2022-10-08T11:43:12.950Z,283.76
2022-10-08T11:44:12.951Z,283.76
2022-10-08T11:45:12.948Z,334.59
2022-10-08T11:46:12.991Z,334.59
2022-10-08T11:47:12.973Z,330.35
2022-10-08T11:48:12.953Z,306.35
2022-10-08T11:49:12.955Z,307.76
2022-10-08T11:50:12.948Z,303.53
2022-10-08T11:51:12.951Z,307.76
2022-10-08T11:52:12.954Z,302.12
2022-10-08T11:53:12.950Z,307.76
2022-10-08T11:54:12.958Z,300.71
2022-10-08T11:55:12.952Z,300.71
2022-10-08T11:56:12.945Z,293.65
2022-10-08T11:57:12.946Z,307.76
2022-10-08T11:58:12.952Z,303.53
2022-10-08T11:59:12.947Z,306.35
2022-10-08T12:00:13.002Z,304.94
2022-10-08T12:01:12.959Z,304.94
2022-10-08T12:02:13.020Z,8.47
2022-10-08T12:03:13.149Z,304.94
2022-10-08T12:04:12.974Z,331.76
2022-10-08T12:05:12.970Z,331.76
2022-10-08T12:06:12.967Z,331.76
2022-10-08T12:07:12.969Z,331.76
2022-10-08T12:08:12.972Z,331.76
2022-10-08T12:09:12.969Z,331.76
2022-10-08T12:10:13.010Z,306.35
2022-10-08T12:11:12.986Z,302.12
2022-10-08T12:12:12.978Z,306.35
2022-10-08T12:13:16.855Z,306.35
2022-10-08T12:14:12.994Z,307.76
2022-10-08T12:15:12.980Z,333.18
2022-10-08T12:16:13.011Z,289.41
2022-10-08T12:17:13.002Z,289.41
2022-10-08T12:18:12.992Z,289.41
2022-10-08T12:19:13.006Z,289.41
2022-10-08T12:20:13.054Z,324.71
2022-10-08T12:21:12.980Z,286.59
2022-10-08T12:22:12.988Z,283.76
2022-10-08T12:23:12.992Z,293.65
2022-10-08T12:24:12.991Z,297.88
2022-10-08T12:25:12.987Z,317.65
2022-10-08T12:26:12.996Z,296.47
2022-10-08T12:27:12.999Z,293.65
2022-10-08T12:28:13.036Z,299.29
2022-10-08T12:29:12.994Z,304.94
2022-10-08T12:30:13.078Z,313.41
2022-10-08T12:31:13.021Z,330.35
2022-10-08T12:32:13.002Z,316.24
2022-10-08T12:33:13.001Z,333.18
2022-10-08T12:34:13.014Z,300.71
2022-10-08T12:35:13.084Z,345.88
2022-10-08T12:36:13.025Z,278.12
2022-10-08T12:37:16.377Z,304.94
2022-10-08T12:38:12.998Z,309.18
2022-10-08T12:39:13.007Z,328.94
2022-10-08T12:40:13.007Z,307.76
2022-10-08T12:41:13.004Z,276.71
2022-10-08T12:42:13.007Z,293.65
2022-10-08T12:43:13.013Z,313.41